Startpagina
METAR-TAF:

METAR-TAF

Vliegvelden :

Tahiti, Frans-Polynesië

breedte: 17-33S, lengte: 149-37W, hoogte: 2 m

Actueel weer

Dit bericht is 8 minuten geleden gemaakt, om 02:00 UTC
Wind 12 kt uit het oostnoordoosten
Temperatuur 30°C
Vochtigheid 66%
Druk 1010 hPa
Zicht 10 km of meer
Weinig wolken op 2000 ft

METAR: NTAA 210200Z 06012KT 9999 FEW020 30/23 Q1010 NOSIG

Tijdstip: 16:08 (02:08 UTC)

Verwachting

Dit bericht is 1 uur en het 27 minuten geleden gemaakt, om 00:41 UTC
Verwachting geldig van 21 om 00 UTC tot 22 om 06 UTC
Wind 15 kt uit het noordoosten
Zicht 10 km of meer
Weinig wolken op 2300 ft
Verspreide wolken op 5000 ft
Tijdelijke
van 21 om 02 UTC tot 21 om 05 UTC
Wind 15 kt uit het noordnoordoosten
Zicht: 5000 m
Gebroken wolken op 1600 ft
Gebroken wolken op 4000 ft
regenbuien
Wijzigt naar
van 21 om 02 UTC tot 21 om 04 UTC
Wind 5 kt uit variabele richting

TAF: NTAA 210041Z 2100/2206 04015KT 9999 FEW023 SCT050 TEMPO 2102/2105 03015KT 5000 SHRA BKN016 BKN040 BECMG 2102/2104 VRB05KT

Waarnemingen en weersverwachtingen van meer dan 4000 vliegvelden (METAR en TAF).

De beschikbare stations zijn de gele en rode punten op de kaart.

Ga met uw muis naar het station om de naam te zien.

Klik dan om waarnemingen en weersverwachtingen te zien.

kaart wijzigen: klik op de groene knoppen met een zwart kruis om in te zoomen, op de groene knop met een streepje om uit te zoomen of op de groene pijlen voor aangrenzende kaarten.


METAR-TAF: